Time;durP1;ratioP1;P1;durP2;ratioP2;P2;SDS_P1;SDS_P2;PMS_P1;PMS_P2;Temp;Humidity;BMP_temperature;BMP_pressure;BME280_temperature;BME280_humidity;BME280_pressure;Samples;Min_cycle;Max_cycle;Signal;HPM_P1;HPM_P2
2021/08/01 00:02:11;;;;;;;1.85;1.30;;;15.10;99.90;;;;;;5053969;28;20067;-39
2021/08/01 00:04:37;;;;;;;1.45;1.20;;;15.10;99.90;;;;;;5054092;28;20029;-39
2021/08/01 00:07:04;;;;;;;1.38;1.27;;;15.00;99.90;;;;;;5053609;28;20025;-38
2021/08/01 00:09:29;;;;;;;2.90;1.45;;;15.00;99.90;;;;;;5053085;28;20044;-38
2021/08/01 00:11:55;;;;;;;2.47;1.35;;;15.00;99.90;;;;;;5054159;28;20385;-40
2021/08/01 00:14:20;;;;;;;4.03;1.58;;;15.00;99.90;;;;;;5053859;28;20043;-38
2021/08/01 00:16:46;;;;;;;2.20;1.52;;;14.90;99.90;;;;;;5053766;28;20059;-38
2021/08/01 00:19:12;;;;;;;1.75;1.55;;;14.90;99.90;;;;;;5053972;28;20037;-38
2021/08/01 00:21:37;;;;;;;2.38;1.50;;;14.90;99.90;;;;;;5053686;28;20033;-38
2021/08/01 00:24:03;;;;;;;2.60;1.20;;;14.80;99.90;;;;;;5052320;28;20033;-40
2021/08/01 00:26:28;;;;;;;1.85;1.35;;;14.70;99.90;;;;;;5053647;28;20067;-38
2021/08/01 00:28:54;;;;;;;2.72;1.30;;;14.70;99.90;;;;;;5053520;28;20468;-38
2021/08/01 00:31:19;;;;;;;2.45;1.35;;;14.60;99.90;;;;;;5053536;28;20032;-38
2021/08/01 00:33:45;;;;;;;2.85;1.67;;;14.70;99.90;;;;;;5053433;28;20576;-39
2021/08/01 00:36:10;;;;;;;1.77;1.45;;;14.60;99.90;;;;;;5053494;28;20017;-38
2021/08/01 00:38:36;;;;;;;1.90;1.48;;;14.60;99.90;;;;;;5051925;28;20025;-38
2021/08/01 00:41:02;;;;;;;2.28;1.38;;;14.60;99.90;;;;;;5053315;28;20025;-40
2021/08/01 00:43:28;;;;;;;3.38;1.70;;;14.50;99.90;;;;;;5053365;28;20028;-37
2021/08/01 00:45:53;;;;;;;2.67;1.40;;;14.50;99.90;;;;;;5053252;28;20025;-39
2021/08/01 00:48:23;;;;;;;1.67;1.40;;;14.40;99.90;;;;;;5053218;28;20369;-38
2021/08/01 00:50:49;;;;;;;5.22;1.52;;;14.40;99.90;;;;;;5053033;28;20022;-38
2021/08/01 00:53:15;;;;;;;2.85;1.50;;;14.30;99.90;;;;;;5050981;28;20025;-40
2021/08/01 00:55:40;;;;;;;1.38;1.23;;;14.20;99.90;;;;;;5053085;28;20021;-38
2021/08/01 00:58:06;;;;;;;1.67;1.25;;;14.20;99.90;;;;;;5053056;28;20103;-41
2021/08/01 01:03:29;;;;;;;1.83;1.40;;;14.10;99.90;;;;;;5052966;28;20558;-38
2021/08/01 01:06:00;;;;;;;1.98;1.23;;;14.00;99.90;;;;;;5052936;28;20472;-39
2021/08/01 01:08:52;;;;;;;2.35;1.30;;;13.90;99.90;;;;;;5051640;28;20025;-40
2021/08/01 01:11:19;;;;;;;1.92;1.63;;;13.90;99.90;;;;;;5052911;28;20037;-38
2021/08/01 01:13:49;;;;;;;1.45;1.30;;;13.80;99.90;;;;;;5052875;28;20051;-39
2021/08/01 01:16:14;;;;;;;2.10;1.35;;;13.80;99.90;;;;;;5052917;28;20396;-38
2021/08/01 01:18:48;;;;;;;2.10;1.60;;;13.80;99.90;;;;;;5052773;28;20025;-38
2021/08/01 01:21:19;;;;;;;1.98;1.83;;;13.70;99.90;;;;;;5052805;28;20032;-38
2021/08/01 01:23:47;;;;;;;2.67;1.60;;;13.70;99.90;;;;;;5051447;28;20555;-40
2021/08/01 01:26:26;;;;;;;1.67;1.35;;;13.70;99.90;;;;;;5052733;28;20035;-38
2021/08/01 01:29:06;;;;;;;1.75;1.65;;;13.70;99.90;;;;;;5052604;28;20487;-38
2021/08/01 01:31:46;;;;;;;1.98;1.60;;;13.70;99.90;;;;;;5052669;28;20048;-38
2021/08/01 01:34:25;;;;;;;1.48;1.20;;;13.70;99.90;;;;;;5052721;28;20028;-39
2021/08/01 01:36:53;;;;;;;3.53;1.45;;;13.60;99.90;;;;;;5052493;28;20384;-38
2021/08/01 01:39:20;;;;;;;1.35;1.20;;;13.60;99.90;;;;;;5051378;28;20032;-39
2021/08/01 01:41:48;;;;;;;1.60;1.27;;;13.70;99.90;;;;;;5052568;28;20106;-38
2021/08/01 01:44:14;;;;;;;4.80;1.40;;;13.70;99.90;;;;;;5052581;28;20036;-40
2021/08/01 01:46:40;;;;;;;1.58;1.20;;;13.60;99.90;;;;;;5052571;28;20036;-39
2021/08/01 01:49:09;;;;;;;1.67;1.48;;;13.60;99.90;;;;;;5051269;28;20029;-38
2021/08/01 01:51:36;;;;;;;1.80;1.55;;;13.60;99.90;;;;;;5052361;28;20033;-38
2021/08/01 01:54:02;;;;;;;1.77;1.48;;;13.60;99.90;;;;;;5051222;28;20035;-38
2021/08/01 01:56:31;;;;;;;2.08;1.55;;;13.60;99.90;;;;;;5052497;28;20032;-40
2021/08/01 01:58:57;;;;;;;3.47;1.40;;;13.60;99.90;;;;;;5052385;28;20430;-38
2021/08/01 02:01:23;;;;;;;2.92;1.33;;;13.50;99.90;;;;;;5052636;28;20029;-38
2021/08/01 02:03:50;;;;;;;3.03;1.40;;;13.50;99.90;;;;;;5052228;28;20060;-37
2021/08/01 02:06:16;;;;;;;2.22;1.33;;;13.50;99.90;;;;;;5056299;28;20029;-38
2021/08/01 02:08:50;;;;;;;2.05;1.70;;;13.50;99.90;;;;;;5054866;28;20032;-40
2021/08/01 02:11:20;;;;;;;2.13;1.25;;;13.50;99.90;;;;;;5056232;28;20113;-38
2021/08/01 02:14:00;;;;;;;2.78;1.38;;;13.50;99.90;;;;;;5056090;28;20100;-37
2021/08/01 02:16:32;;;;;;;1.85;1.25;;;13.50;99.90;;;;;;5056128;28;20021;-39
2021/08/01 02:19:00;;;;;;;3.50;1.73;;;13.50;99.90;;;;;;5055994;28;20036;-40
2021/08/01 02:21:27;;;;;;;1.48;1.38;;;13.50;99.90;;;;;;5056038;28;20037;-38
2021/08/01 02:23:53;;;;;;;3.03;1.60;;;13.50;99.90;;;;;;5054642;28;20499;-38
2021/08/01 02:26:21;;;;;;;3.40;1.70;;;13.50;99.90;;;;;;5055933;28;20079;-41
2021/08/01 02:28:50;;;;;;;2.03;1.58;;;13.40;99.90;;;;;;5055796;28;20438;-38
2021/08/01 02:31:16;;;;;;;1.75;1.50;;;13.50;99.90;;;;;;5055756;28;20036;-38
2021/08/01 02:33:42;;;;;;;2.35;1.60;;;13.40;99.90;;;;;;5055810;28;20048;-39
2021/08/01 02:36:09;;;;;;;1.73;1.42;;;13.40;99.90;;;;;;5055739;28;20057;-38
2021/08/01 02:38:36;;;;;;;1.88;1.70;;;13.30;99.90;;;;;;5054437;28;20028;-38
2021/08/01 02:41:05;;;;;;;1.52;1.33;;;13.30;99.90;;;;;;5055697;28;20021;-38
2021/08/01 02:43:32;;;;;;;2.97;1.83;;;13.20;99.90;;;;;;5055639;28;20035;-40
2021/08/01 02:45:59;;;;;;;3.15;1.48;;;13.20;99.90;;;;;;5055545;28;20091;-39
2021/08/01 02:48:28;;;;;;;2.65;1.50;;;13.20;99.90;;;;;;5055601;28;20025;-38
2021/08/01 02:50:59;;;;;;;1.75;1.65;;;13.20;99.90;;;;;;5055371;28;20469;-38
2021/08/01 02:53:26;;;;;;;1.60;1.50;;;13.10;99.90;;;;;;5054158;28;20057;-38
2021/08/01 02:55:53;;;;;;;1.92;1.27;;;13.10;99.90;;;;;;5055362;28;20060;-39
2021/08/01 02:58:19;;;;;;;1.98;1.45;;;13.10;99.90;;;;;;5055238;28;20028;-38
2021/08/01 03:00:47;;;;;;;1.85;1.60;;;13.10;99.90;;;;;;5055317;28;20123;-39
2021/08/01 03:03:15;;;;;;;2.65;1.52;;;13.10;99.90;;;;;;5055129;28;20528;-38
2021/08/01 03:05:42;;;;;;;2.15;1.52;;;13.00;99.90;;;;;;5055237;28;20083;-38
2021/08/01 03:08:12;;;;;;;1.77;1.42;;;13.00;99.90;;;;;;5052720;28;20029;-38
2021/08/01 03:10:44;;;;;;;4.95;1.60;;;13.00;99.90;;;;;;5054977;28;20024;-38
2021/08/01 03:13:10;;;;;;;2.13;1.40;;;13.00;99.90;;;;;;5055145;28;20100;-39
2021/08/01 03:15:36;;;;;;;2.80;2.20;;;13.00;99.90;;;;;;5054397;28;20244;-38
2021/08/01 03:18:02;;;;;;;2.10;1.90;;;13.00;99.90;;;;;;5054783;28;20049;-38
2021/08/01 03:20:28;;;;;;;2.20;1.48;;;13.00;99.90;;;;;;5054949;28;20448;-38
2021/08/01 03:22:53;;;;;;;1.98;1.80;;;13.00;99.90;;;;;;5053555;28;20070;-40
2021/08/01 03:25:19;;;;;;;1.70;1.60;;;13.00;99.90;;;;;;5054729;28;20037;-38
2021/08/01 03:27:44;;;;;;;1.75;1.50;;;13.00;99.90;;;;;;5054794;28;20075;-37
2021/08/01 03:30:10;;;;;;;2.60;1.20;;;12.90;99.90;;;;;;5054693;28;20460;-37
2021/08/01 03:32:36;;;;;;;2.65;1.80;;;12.90;99.90;;;;;;5054780;28;20036;-38
2021/08/01 03:35:01;;;;;;;2.05;1.83;;;12.90;99.90;;;;;;5054661;28;20025;-38
2021/08/01 03:37:27;;;;;;;2.85;1.48;;;12.80;99.90;;;;;;5053392;28;20468;-38
2021/08/01 03:39:53;;;;;;;2.60;1.63;;;12.80;99.90;;;;;;5054495;28;20107;-39
2021/08/01 03:42:19;;;;;;;2.17;1.27;;;12.80;99.90;;;;;;5054549;28;20116;-38
2021/08/01 03:44:44;;;;;;;2.55;2.10;;;12.90;99.90;;;;;;5054471;28;20029;-38
2021/08/01 03:47:10;;;;;;;1.90;1.58;;;12.90;99.90;;;;;;5054442;28;20036;-40
2021/08/01 03:49:36;;;;;;;1.75;1.58;;;12.90;99.90;;;;;;5054305;28;20416;-40
2021/08/01 03:52:01;;;;;;;4.10;1.70;;;13.00;99.90;;;;;;5053439;28;20025;-38
2021/08/01 03:54:27;;;;;;;3.67;1.60;;;13.00;99.90;;;;;;5054266;28;20029;-38
2021/08/01 03:56:53;;;;;;;2.13;1.73;;;13.10;99.90;;;;;;5054179;28;20540;-38
2021/08/01 03:59:18;;;;;;;2.17;1.65;;;13.20;99.90;;;;;;5054134;28;20472;-41
2021/08/01 04:01:44;;;;;;;1.80;1.70;;;13.30;99.90;;;;;;5054127;28;20039;-40
2021/08/01 04:04:09;;;;;;;1.92;1.70;;;13.40;99.90;;;;;;5053894;28;20542;-38
2021/08/01 04:06:35;;;;;;;2.67;1.83;;;13.50;99.90;;;;;;5054060;28;20392;-40
2021/08/01 04:09:01;;;;;;;2.17;1.60;;;13.60;99.90;;;;;;5052569;28;20044;-38
2021/08/01 04:11:26;;;;;;;2.55;1.80;;;13.70;99.90;;;;;;5054122;28;20286;-38
2021/08/01 04:13:52;;;;;;;2.78;1.50;;;13.90;99.90;;;;;;5053882;28;20052;-37
2021/08/01 04:16:18;;;;;;;2.38;1.40;;;14.10;99.90;;;;;;5053967;28;20530;-37
2021/08/01 04:18:43;;;;;;;2.05;1.88;;;14.20;99.90;;;;;;5053894;28;20574;-38
2021/08/01 04:21:13;;;;;;;2.05;1.70;;;14.40;99.90;;;;;;5053725;28;20104;-39
2021/08/01 04:23:39;;;;;;;2.10;1.67;;;14.50;99.90;;;;;;5052450;28;20017;-38
2021/08/01 04:26:06;;;;;;;2.45;1.63;;;14.70;99.90;;;;;;5053634;28;20025;-38
2021/08/01 04:28:33;;;;;;;3.92;2.08;;;14.80;99.90;;;;;;5053564;28;20512;-38
2021/08/01 04:30:58;;;;;;;2.80;1.55;;;14.80;99.90;;;;;;5053544;28;20387;-40
2021/08/01 04:33:24;;;;;;;1.40;1.30;;;14.80;99.90;;;;;;5053582;28;20032;-37
2021/08/01 04:35:50;;;;;;;4.35;1.60;;;14.90;99.90;;;;;;5053466;28;20025;-37
2021/08/01 04:38:16;;;;;;;3.00;1.75;;;15.00;99.90;;;;;;5052373;28;20029;-37
2021/08/01 04:40:41;;;;;;;1.60;1.50;;;15.10;99.90;;;;;;5053267;28;20373;-38
2021/08/01 04:43:07;;;;;;;3.25;1.83;;;15.20;99.90;;;;;;5053367;28;20044;-38
2021/08/01 04:45:32;;;;;;;3.17;2.10;;;15.30;99.90;;;;;;5053355;28;20075;-37
2021/08/01 04:47:58;;;;;;;1.63;1.50;;;15.30;99.90;;;;;;5053304;28;20067;-38
2021/08/01 04:50:23;;;;;;;2.67;1.63;;;15.50;99.90;;;;;;5053167;28;20029;-37
2021/08/01 04:52:52;;;;;;;1.77;1.67;;;15.60;99.90;;;;;;5052099;28;20514;-39
2021/08/01 04:55:19;;;;;;;2.63;1.83;;;15.60;99.90;;;;;;5053167;28;20075;-37
2021/08/01 04:57:44;;;;;;;1.52;1.40;;;15.70;99.90;;;;;;5053134;28;20047;-37
2021/08/01 05:00:11;;;;;;;2.65;1.67;;;15.80;99.90;;;;;;5053066;28;20029;-39
2021/08/01 05:02:36;;;;;;;3.53;1.67;;;15.80;99.90;;;;;;5052997;28;20068;-37
2021/08/01 05:05:03;;;;;;;1.63;1.52;;;15.80;99.90;;;;;;5052996;28;20029;-38
2021/08/01 05:07:30;;;;;;;4.35;1.73;;;15.90;99.90;;;;;;5051632;28;20176;-39
2021/08/01 05:09:55;;;;;;;2.15;1.90;;;15.90;99.90;;;;;;5052807;28;20116;-37
2021/08/01 05:12:21;;;;;;;1.40;1.30;;;15.90;99.90;;;;;;5052876;28;20056;-38
2021/08/01 05:14:46;;;;;;;2.33;1.75;;;15.90;99.90;;;;;;5052922;28;20028;-39
2021/08/01 05:17:12;;;;;;;3.42;1.95;;;16.00;99.90;;;;;;5052854;28;20035;-40
2021/08/01 05:19:42;;;;;;;4.22;1.77;;;16.00;99.90;;;;;;5052848;28;20037;-39
2021/08/01 05:22:11;;;;;;;4.53;2.40;;;16.10;99.90;;;;;;5051384;28;20040;-38
2021/08/01 05:24:38;;;;;;;3.45;1.35;;;16.10;99.90;;;;;;5052847;28;20395;-40
2021/08/01 05:27:04;;;;;;;2.47;2.17;;;16.20;99.90;;;;;;5052722;28;20021;-38
2021/08/01 05:29:29;;;;;;;3.33;2.05;;;16.20;99.90;;;;;;5052634;28;20033;-40
2021/08/01 05:31:55;;;;;;;3.15;1.42;;;16.30;99.90;;;;;;5052687;28;20503;-38
2021/08/01 05:34:22;;;;;;;1.92;1.73;;;16.30;99.90;;;;;;5052631;28;20066;-38
2021/08/01 05:36:48;;;;;;;1.80;1.67;;;16.50;99.90;;;;;;5052515;28;20107;-38
2021/08/01 05:39:13;;;;;;;3.17;2.58;;;16.50;99.90;;;;;;5052160;28;20107;-39
2021/08/01 05:41:39;;;;;;;2.33;2.10;;;16.60;99.90;;;;;;5056824;28;20112;-40
2021/08/01 05:44:05;;;;;;;2.95;2.40;;;16.70;99.90;;;;;;5056722;28;20029;-40
2021/08/01 05:46:31;;;;;;;2.03;1.77;;;16.70;99.90;;;;;;5056730;28;20025;-40
2021/08/01 05:48:56;;;;;;;2.70;2.03;;;16.90;99.90;;;;;;5056546;28;20388;-40
2021/08/01 05:51:22;;;;;;;2.92;2.38;;;16.90;99.90;;;;;;5056550;28;20077;-40
2021/08/01 05:53:47;;;;;;;3.05;2.38;;;17.10;99.90;;;;;;5055224;28;20029;-38
2021/08/01 05:56:13;;;;;;;5.80;2.65;;;17.30;99.90;;;;;;5056519;28;20029;-39
2021/08/01 05:58:40;;;;;;;3.00;2.53;;;17.50;99.90;;;;;;5056597;28;20052;-38
2021/08/01 06:01:10;;;;;;;2.65;2.03;;;17.70;99.90;;;;;;5056432;28;20087;-38
2021/08/01 06:03:36;;;;;;;3.17;2.38;;;18.00;99.90;;;;;;5056313;28;20159;-38
2021/08/01 06:06:12;;;;;;;2.20;2.00;;;18.30;99.90;;;;;;5056225;28;20536;-39
2021/08/01 06:08:38;;;;;;;;;;;18.60;99.90;;;;;;5055523;28;20017;-38
2021/08/01 06:11:04;;;;;;;3.60;2.40;;;18.80;99.90;;;;;;5056221;28;19955;-38
2021/08/01 06:13:30;;;;;;;2.80;2.03;;;19.00;99.90;;;;;;5056229;28;20047;-41
2021/08/01 06:15:56;;;;;;;3.13;2.30;;;19.20;99.90;;;;;;5056193;28;20021;-40
2021/08/01 06:18:21;;;;;;;2.30;1.80;;;19.50;99.90;;;;;;5056080;28;20476;-38
2021/08/01 06:20:47;;;;;;;2.58;2.13;;;19.90;99.90;;;;;;5056143;28;20036;-38
2021/08/01 06:23:12;;;;;;;4.20;2.40;;;20.20;99.90;;;;;;5054711;28;20112;-38
2021/08/01 06:25:38;;;;;;;3.10;1.75;;;20.40;99.90;;;;;;5056051;28;20032;-38
2021/08/01 06:28:05;;;;;;;4.20;1.70;;;20.50;99.90;;;;;;5055850;28;20055;-40
2021/08/01 06:30:30;;;;;;;6.25;2.63;;;20.80;99.90;;;;;;5055888;28;20025;-39
2021/08/01 06:32:56;;;;;;;2.08;1.88;;;21.00;99.90;;;;;;5055906;28;20087;-39
2021/08/01 06:35:21;;;;;;;3.70;1.65;;;21.20;99.90;;;;;;5055631;28;20025;-38
2021/08/01 06:37:47;;;;;;;3.40;2.03;;;21.30;99.90;;;;;;5054507;28;20453;-41
2021/08/01 06:40:12;;;;;;;3.83;1.63;;;21.50;99.90;;;;;;5055665;28;20033;-40
2021/08/01 06:42:38;;;;;;;3.42;2.20;;;21.70;99.90;;;;;;5055717;28;20078;-41
2021/08/01 06:45:04;;;;;;;2.40;1.55;;;21.80;99.90;;;;;;5055599;28;20033;-41
2021/08/01 06:47:29;;;;;;;2.75;1.67;;;21.80;99.90;;;;;;5055597;28;20035;-39
2021/08/01 06:49:55;;;;;;;4.68;2.20;;;21.80;99.90;;;;;;5055271;28;20437;-39
2021/08/01 06:52:20;;;;;;;2.33;1.50;;;21.80;99.90;;;;;;5052926;28;20086;-38
2021/08/01 06:54:46;;;;;;;2.33;1.65;;;21.80;99.90;;;;;;5055433;28;20044;-39
2021/08/01 06:57:11;;;;;;;2.50;1.45;;;21.70;99.90;;;;;;5055325;28;20100;-38
2021/08/01 06:59:37;;;;;;;3.42;1.75;;;21.60;99.90;;;;;;5055333;28;20451;-41
2021/08/01 07:02:02;;;;;;;1.85;1.58;;;21.50;99.90;;;;;;5055099;28;20036;-38
2021/08/01 07:04:28;;;;;;;2.13;1.63;;;21.40;99.90;;;;;;5055088;28;20086;-39
2021/08/01 07:06:53;;;;;;;1.40;1.30;;;21.20;99.90;;;;;;5054439;28;20030;-39
2021/08/01 07:09:19;;;;;;;2.58;1.40;;;21.20;99.90;;;;;;5054644;28;20056;-38
2021/08/01 07:11:44;;;;;;;2.50;1.48;;;21.20;99.90;;;;;;5055246;28;20533;-38
2021/08/01 07:14:10;;;;;;;2.55;1.65;;;21.30;99.90;;;;;;5055104;28;20411;-38
2021/08/01 07:16:42;;;;;;;2.78;1.70;;;21.30;99.90;;;;;;5055115;28;20075;-38
2021/08/01 07:19:08;;;;;;;3.20;1.67;;;21.30;99.90;;;;;;5054929;28;20067;-41
2021/08/01 07:21:33;;;;;;;2.30;1.58;;;21.20;99.90;;;;;;5054949;28;20424;-39
2021/08/01 07:23:59;;;;;;;1.30;1.13;;;21.20;99.90;;;;;;5053705;28;20033;-38
2021/08/01 07:26:24;;;;;;;1.60;1.50;;;21.00;99.90;;;;;;5054847;28;20025;-40
2021/08/01 07:28:49;;;;;;;2.97;1.40;;;21.00;99.90;;;;;;5054856;28;20032;-38
2021/08/01 07:31:15;;;;;;;1.60;1.48;;;21.00;99.90;;;;;;5054760;28;20028;-39
2021/08/01 07:33:40;;;;;;;2.45;1.65;;;21.00;99.90;;;;;;5054642;28;20025;-39
2021/08/01 07:36:07;;;;;;;1.50;1.40;;;21.00;99.90;;;;;;5054668;28;20021;-39
2021/08/01 07:38:32;;;;;;;2.15;1.95;;;21.10;99.90;;;;;;5053291;28;20021;-38
2021/08/01 07:40:58;;;;;;;2.15;1.58;;;21.30;99.90;;;;;;5054613;28;20029;-39
2021/08/01 07:43:23;;;;;;;1.67;1.58;;;21.50;99.90;;;;;;5054521;28;20472;-39
2021/08/01 07:45:49;;;;;;;2.83;1.75;;;22.00;99.90;;;;;;5054495;28;20039;-40
2021/08/01 07:48:14;;;;;;;1.95;1.50;;;22.60;98.70;;;;;;5054279;28;20033;-42
2021/08/01 07:50:40;;;;;;;3.10;1.83;;;23.00;96.80;;;;;;5054307;28;20025;-40
2021/08/01 07:53:05;;;;;;;2.28;1.50;;;23.20;95.30;;;;;;5053064;28;20026;-40
2021/08/01 07:55:31;;;;;;;2.15;1.67;;;23.30;94.20;;;;;;5054253;28;20411;-39
2021/08/01 07:57:56;;;;;;;2.30;1.90;;;23.50;93.40;;;;;;5054300;28;20040;-38
2021/08/01 08:00:22;;;;;;;1.98;1.70;;;23.70;92.20;;;;;;5054168;28;20061;-38
2021/08/01 08:02:47;;;;;;;1.65;1.55;;;23.80;91.80;;;;;;5053599;28;20087;-38
2021/08/01 08:05:13;;;;;;;1.45;1.35;;;24.00;90.90;;;;;;5054073;28;20492;-38
2021/08/01 08:07:39;;;;;;;1.70;1.38;;;24.10;89.80;;;;;;5052818;28;20025;-38
2021/08/01 08:10:06;;;;;;;1.77;1.38;;;24.50;88.20;;;;;;5054023;28;20087;-38
2021/08/01 08:12:31;;;;;;;1.85;1.50;;;25.20;83.50;;;;;;5053930;28;20530;-39
2021/08/01 08:14:57;;;;;;;2.50;1.80;;;25.60;81.70;;;;;;5053915;28;20033;-39
2021/08/01 08:17:23;;;;;;;3.80;1.73;;;26.30;79.00;;;;;;5053679;28;20464;-40
2021/08/01 08:19:48;;;;;;;2.45;1.70;;;26.80;75.80;;;;;;5053807;28;20075;-39
2021/08/01 08:22:14;;;;;;;4.20;2.42;;;27.30;71.70;;;;;;5052422;28;20037;-41
2021/08/01 08:24:40;;;;;;;1.52;1.20;;;27.10;63.20;;;;;;5053647;28;20036;-39
2021/08/01 08:27:06;;;;;;;2.47;1.35;;;26.70;67.20;;;;;;5053734;28;20139;-39
2021/08/01 08:29:33;;;;;;;1.40;1.30;;;26.70;66.60;;;;;;5053521;28;20033;-40
2021/08/01 08:31:58;;;;;;;1.98;1.35;;;26.70;68.70;;;;;;5053503;28;20053;-39
2021/08/01 08:34:25;;;;;;;2.30;1.25;;;26.60;69.20;;;;;;5053464;28;20538;-39
2021/08/01 08:36:52;;;;;;;1.52;0.98;;;26.60;68.40;;;;;;5053091;28;20028;-42
2021/08/01 08:39:19;;;;;;;2.15;1.30;;;26.50;67.70;;;;;;5053109;28;20029;-39
2021/08/01 08:41:45;;;;;;;1.45;1.35;;;26.50;67.20;;;;;;5053484;28;20105;-41
2021/08/01 08:44:11;;;;;;;4.07;1.52;;;26.70;66.20;;;;;;5053396;28;20056;-39
2021/08/01 08:46:38;;;;;;;1.33;1.10;;;26.90;65.20;;;;;;5053250;28;20718;-41
2021/08/01 08:49:09;;;;;;;2.08;1.40;;;27.10;63.50;;;;;;5051956;28;20054;-39
2021/08/01 08:51:37;;;;;;;1.15;1.05;;;27.20;58.00;;;;;;5053168;28;20512;-39
2021/08/01 08:54:04;;;;;;;2.28;1.60;;;27.20;60.70;;;;;;5051965;28;20029;-39
2021/08/01 08:56:30;;;;;;;3.25;0.98;;;27.30;60.10;;;;;;5053122;28;20108;-39
2021/08/01 08:58:56;;;;;;;1.15;1.05;;;27.30;59.00;;;;;;5053139;28;20068;-39
2021/08/01 09:01:22;;;;;;;4.78;1.10;;;27.40;58.50;;;;;;5052945;28;20128;-39
2021/08/01 09:03:49;;;;;;;2.75;1.17;;;27.30;58.50;;;;;;5052934;28;20119;-39
2021/08/01 09:06:15;;;;;;;2.13;1.20;;;27.50;57.20;;;;;;5053056;28;20078;-41
2021/08/01 09:08:41;;;;;;;1.50;1.20;;;27.50;56.10;;;;;;5051682;28;20056;-39
2021/08/01 09:11:06;;;;;;;1.35;1.02;;;27.30;55.50;;;;;;5052940;28;20424;-39
2021/08/01 09:13:57;;;;;;;2.20;1.00;;;27.30;55.70;;;;;;5052435;28;20071;-40
2021/08/01 09:16:40;;;;;;;1.10;1.00;;;27.10;54.30;;;;;;5052893;28;20028;-38
2021/08/01 09:19:26;;;;;;;1.67;1.08;;;26.80;55.00;;;;;;5052887;28;20032;-40
2021/08/01 09:21:52;;;;;;;2.72;1.40;;;26.50;53.60;;;;;;5052004;28;20025;-39
2021/08/01 09:24:18;;;;;;;2.17;1.00;;;26.40;56.60;;;;;;5052667;28;20112;-39
2021/08/01 09:26:46;;;;;;;1.55;1.10;;;26.40;56.60;;;;;;5052763;28;20116;-38
2021/08/01 09:29:13;;;;;;;1.55;1.45;;;26.40;56.00;;;;;;5052690;28;20085;-39
2021/08/01 09:31:38;;;;;;;2.33;1.10;;;26.50;55.50;;;;;;5052680;28;20059;-40
2021/08/01 09:34:33;;;;;;;1.30;1.17;;;26.70;54.90;;;;;;5052717;28;20029;-40
2021/08/01 09:37:04;;;;;;;1.30;1.20;;;26.70;53.70;;;;;;5046711;28;20048;-39
2021/08/01 09:39:39;;;;;;;1.65;1.55;;;27.00;54.20;;;;;;5052643;28;20116;-41
2021/08/01 09:42:05;;;;;;;1.27;1.10;;;27.30;51.20;;;;;;5052704;28;20096;-39
2021/08/01 09:44:31;;;;;;;1.20;1.10;;;27.50;51.50;;;;;;5052564;28;20039;-41
2021/08/01 09:46:57;;;;;;;1.35;1.02;;;27.90;50.40;;;;;;5052536;28;20096;-41
2021/08/01 09:49:25;;;;;;;0.90;0.90;;;27.80;50.00;;;;;;5052291;28;20094;-40
2021/08/01 09:51:56;;;;;;;1.33;1.17;;;28.00;49.50;;;;;;5051533;28;20071;-39
2021/08/01 09:54:24;;;;;;;1.23;1.10;;;28.30;48.10;;;;;;5052502;28;20036;-39
2021/08/01 09:57:05;;;;;;;1.40;1.25;;;28.50;47.50;;;;;;5052437;28;20474;-39
2021/08/01 09:59:32;;;;;;;1.48;1.25;;;28.40;45.90;;;;;;5052322;28;20037;-39
2021/08/01 10:02:00;;;;;;;1.45;1.25;;;28.60;46.80;;;;;;5052199;28;20028;-39
2021/08/01 10:04:40;;;;;;;1.40;1.27;;;28.60;46.80;;;;;;5052387;28;20040;-39
2021/08/01 10:07:13;;;;;;;1.65;1.20;;;28.40;46.60;;;;;;5051134;28;20376;-41
2021/08/01 10:09:49;;;;;;;1.35;1.10;;;28.20;46.50;;;;;;5052331;28;20025;-39
2021/08/01 10:12:15;;;;;;;2.25;1.20;;;28.10;46.80;;;;;;5052256;28;20017;-41
2021/08/01 10:14:44;;;;;;;1.30;1.10;;;28.20;46.90;;;;;;5052333;28;20302;-39
2021/08/01 10:17:09;;;;;;;1.70;1.35;;;28.30;46.30;;;;;;5052375;28;20061;-39
2021/08/01 10:19:35;;;;;;;2.33;1.10;;;28.40;45.90;;;;;;5052258;28;20115;-39
2021/08/01 10:22:03;;;;;;;1.40;1.23;;;28.60;45.40;;;;;;5050941;28;20031;-41
2021/08/01 10:24:43;;;;;;;1.17;1.00;;;28.60;44.70;;;;;;5052192;28;20033;-39
2021/08/01 10:27:09;;;;;;;1.27;1.15;;;28.60;43.50;;;;;;5056008;28;20135;-39
2021/08/01 10:29:54;;;;;;;1.00;0.90;;;28.50;44.60;;;;;;5055826;28;20028;-39
2021/08/01 10:32:23;;;;;;;2.05;1.40;;;28.40;42.60;;;;;;5055936;28;20028;-41
2021/08/01 10:35:29;;;;;;;1.98;1.20;;;28.40;44.10;;;;;;5055826;28;20403;-43
2021/08/01 10:37:58;;;;;;;1.40;1.30;;;28.30;44.30;;;;;;5032354;28;20025;-39
2021/08/01 10:40:25;;;;;;;1.10;1.00;;;28.00;44.80;;;;;;5033612;28;20025;-39
2021/08/01 10:43:01;;;;;;;4.00;1.27;;;27.70;45.20;;;;;;5044504;28;20033;-38
2021/08/01 10:45:27;;;;;;;1.40;1.25;;;27.50;45.40;;;;;;5055705;28;20353;-40
2021/08/01 10:47:54;;;;;;;1.30;1.20;;;27.40;45.90;;;;;;5055560;28;20033;-43
2021/08/01 10:50:26;;;;;;;1.65;1.20;;;27.30;46.10;;;;;;5055468;28;20029;-40
2021/08/01 10:53:24;;;;;;;1.55;1.27;;;27.40;45.60;;;;;;5054209;28;20025;-39
2021/08/01 10:56:13;;;;;;;1.48;1.38;;;27.40;45.00;;;;;;5055421;28;20031;-41
2021/08/01 10:58:39;;;;;;;1.40;1.30;;;27.30;45.60;;;;;;5055313;28;20021;-42
2021/08/01 11:01:05;;;;;;;1.60;1.50;;;27.20;45.60;;;;;;5055375;28;20359;-39
2021/08/01 11:03:33;;;;;;;1.30;1.20;;;27.00;46.00;;;;;;5055095;28;20053;-40
2021/08/01 11:06:00;;;;;;;2.10;1.40;;;26.90;46.70;;;;;;5055237;28;20025;-39
2021/08/01 11:08:26;;;;;;;5.00;1.70;;;26.80;47.20;;;;;;5053843;28;20427;-39
2021/08/01 11:11:09;;;;;;;1.52;1.42;;;26.40;47.30;;;;;;5055096;28;20033;-41
2021/08/01 11:13:41;;;;;;;2.47;1.30;;;26.40;47.90;;;;;;5055010;28;20071;-39
2021/08/01 11:16:08;;;;;;;4.03;2.10;;;26.30;48.00;;;;;;5055055;28;20100;-39
2021/08/01 11:18:42;;;;;;;2.45;1.60;;;26.10;48.30;;;;;;5054873;28;20052;-39
2021/08/01 11:21:09;;;;;;;1.63;1.20;;;26.00;48.70;;;;;;5054864;28;20032;-40
2021/08/01 11:24:05;;;;;;;1.65;1.55;;;26.00;48.60;;;;;;5053587;28;20483;-39
2021/08/01 11:26:31;;;;;;;2.72;1.58;;;26.20;48.10;;;;;;5054868;28;20025;-38
2021/08/01 11:29:05;;;;;;;1.85;1.33;;;26.20;48.00;;;;;;5054721;28;20094;-39
2021/08/01 11:31:32;;;;;;;2.70;1.35;;;26.50;47.40;;;;;;5054506;28;20025;-39
2021/08/01 11:34:16;;;;;;;2.33;1.20;;;26.60;47.10;;;;;;5054730;28;20109;-39
2021/08/01 11:36:41;;;;;;;2.28;1.35;;;26.80;46.90;;;;;;5054211;28;20467;-39
2021/08/01 11:39:08;;;;;;;1.55;1.42;;;26.80;46.70;;;;;;5053240;28;20040;-40
2021/08/01 11:41:37;;;;;;;1.40;1.30;;;26.60;46.50;;;;;;5054634;28;20013;-41
2021/08/01 11:44:04;;;;;;;1.35;1.25;;;26.30;46.00;;;;;;5054477;28;20459;-39
2021/08/01 11:46:58;;;;;;;1.55;1.45;;;26.10;47.10;;;;;;5054562;28;20380;-41
2021/08/01 11:49:41;;;;;;;1.92;1.50;;;25.80;47.70;;;;;;5054409;28;20025;-39
2021/08/01 11:52:07;;;;;;;3.17;1.60;;;25.70;48.30;;;;;;5053110;28;20029;-40
2021/08/01 11:54:39;;;;;;;5.18;1.42;;;25.60;48.70;;;;;;5054241;28;20023;-39
2021/08/01 11:57:06;;;;;;;1.50;1.40;;;25.50;49.30;;;;;;5054338;28;20021;-43
2021/08/01 11:59:32;;;;;;;3.63;1.35;;;25.50;49.50;;;;;;5054279;28;20052;-40
2021/08/01 12:01:59;;;;;;;3.80;1.25;;;25.50;50.40;;;;;;5054092;28;20036;-39
2021/08/01 12:04:25;;;;;;;1.40;1.30;;;25.30;50.10;;;;;;5054170;28;20078;-43
2021/08/01 12:06:53;;;;;;;1.33;1.10;;;25.30;50.00;;;;;;5052660;28;20043;-39
2021/08/01 12:09:23;;;;;;;2.88;1.40;;;25.40;49.90;;;;;;5054019;28;20020;-39
2021/08/01 12:11:51;;;;;;;2.65;1.55;;;25.50;49.70;;;;;;5054063;28;20029;-38
2021/08/01 12:14:18;;;;;;;2.28;1.58;;;25.60;49.80;;;;;;5053977;28;20021;-39
2021/08/01 12:16:59;;;;;;;1.27;1.17;;;25.70;49.30;;;;;;5053936;28;20025;-41
2021/08/01 12:19:33;;;;;;;3.15;2.30;;;25.70;49.90;;;;;;5053688;28;20477;-39
2021/08/01 12:22:04;;;;;;;1.55;1.38;;;25.70;49.50;;;;;;5052582;28;20033;-39
2021/08/01 12:24:39;;;;;;;3.50;1.85;;;25.90;50.00;;;;;;5053766;28;20037;-40
2021/08/01 12:27:24;;;;;;;5.00;2.17;;;26.00;49.60;;;;;;5052545;28;20052;-44
2021/08/01 12:29:56;;;;;;;3.10;1.63;;;26.20;48.90;;;;;;5053463;28;20032;-41
2021/08/01 12:32:25;;;;;;;6.07;2.00;;;26.00;49.30;;;;;;5053661;28;20056;-41
2021/08/01 12:35:00;;;;;;;3.13;1.42;;;25.90;49.70;;;;;;5053536;28;20028;-43
2021/08/01 12:37:26;;;;;;;7.45;1.98;;;25.90;49.80;;;;;;5052185;28;20056;-39
2021/08/01 12:39:52;;;;;;;1.63;1.40;;;25.80;49.90;;;;;;5053467;28;20131;-41
2021/08/01 12:42:19;;;;;;;1.45;1.35;;;25.60;50.00;;;;;;5053399;28;20029;-40
2021/08/01 12:44:49;;;;;;;1.58;1.25;;;25.50;50.50;;;;;;5053448;28;20407;-43
2021/08/01 12:47:14;;;;;;;1.73;1.25;;;25.50;50.80;;;;;;5053328;28;20032;-39
2021/08/01 12:49:40;;;;;;;1.58;1.42;;;25.40;50.80;;;;;;5053214;28;20033;-41
2021/08/01 12:52:06;;;;;;;2.00;1.58;;;25.40;50.80;;;;;;5052049;28;20028;-41
2021/08/01 12:54:32;;;;;;;1.75;1.45;;;25.30;51.20;;;;;;5053245;28;20491;-40
2021/08/01 12:57:08;;;;;;;1.35;1.20;;;25.20;51.60;;;;;;5052995;28;20025;-38